Terminal Aerodrome Forecast
Issued by NWS

Home | Current Version | Previous Version | Text Only | Print | Product List | Glossary On
Versions: 1 2 3 4 5 6 7 8 9 10 11 12 13
000
FTUS46 KSEW 202336
TAFCLM
TAF
KCLM 202336Z 2100/2124 30009KT P6SM SCT200
     FM211000 VRB03KT P6SM OVC050
     FM211400 00000KT 4SM -RA BR OVC035
     FM211800 00000KT 2SM -RA BR OVC007=

USA.gov is the U.S. government's official web portal to all federal, state and local government web resources and services.